TimeCDT,TemperatureF,Dew PointF,Humidity,Sea Level PressureIn,VisibilityMPH,Wind Direction,Wind SpeedMPH,Gust SpeedMPH,PrecipitationIn,Events,Conditions,WindDirDegrees,DateUTC
12:56 AM,71.1,66.9,87,29.83,-9999.0,SSE,6.9,-,N/A,,Unknown,160,2013-07-09 05:56:00
1:56 AM,72.0,68.0,87,29.80,-9999.0,SSW,3.5,-,N/A,,Unknown,200,2013-07-09 06:56:00
2:56 AM,72.0,68.0,87,29.78,-9999.0,Calm,Calm,-,N/A,,Unknown,0,2013-07-09 07:56:00
3:56 AM,71.1,69.1,93,29.74,-9999.0,East,4.6,-,0.05,,Unknown,90,2013-07-09 08:56:00
4:27 AM,69.8,68.0,94,29.84,-9999.0,NNW,10.4,25.3,0.51,,Unknown,330,2013-07-09 09:27:00
4:56 AM,66.9,66.9,100,29.75,-9999.0,NNW,10.4,21.9,1.41,,Unknown,330,2013-07-09 09:56:00
5:56 AM,66.9,66.0,97,29.65,-9999.0,ENE,8.1,16.1,0.27,,Unknown,60,2013-07-09 10:56:00
6:56 AM,66.9,66.0,97,29.76,-9999.0,WNW,8.1,-,0.01,,Unknown,300,2013-07-09 11:56:00
7:56 AM,69.1,66.9,93,29.79,-9999.0,NNW,10.4,-,N/A,,Unknown,340,2013-07-09 12:56:00
8:56 AM,71.1,66.9,87,29.81,-9999.0,NW,12.7,-,N/A,,Unknown,310,2013-07-09 13:56:00
9:56 AM,75.0,66.0,73,29.81,-9999.0,WNW,11.5,-,N/A,,Unknown,300,2013-07-09 14:56:00
10:56 AM,77.0,66.0,69,29.81,-9999.0,NW,16.1,-,N/A,,Unknown,320,2013-07-09 15:56:00
11:56 AM,80.1,66.9,64,29.81,-9999.0,NNW,15.0,-,N/A,,Unknown,330,2013-07-09 16:56:00
12:56 PM,79.0,66.9,66,29.83,-9999.0,NNW,18.4,-,N/A,,Unknown,340,2013-07-09 17:56:00
1:56 PM,81.0,66.9,62,29.83,-9999.0,NNW,15.0,-,N/A,,Unknown,340,2013-07-09 18:56:00
2:56 PM,80.1,66.0,62,29.84,-9999.0,North,19.6,24.2,N/A,,Unknown,350,2013-07-09 19:56:00
3:56 PM,79.0,64.9,62,29.86,-9999.0,NNW,17.3,-,N/A,,Unknown,340,2013-07-09 20:56:00
4:56 PM,81.0,66.9,62,29.87,-9999.0,NNW,12.7,-,N/A,,Unknown,340,2013-07-09 21:56:00
5:56 PM,78.1,64.0,62,29.89,-9999.0,North,15.0,25.3,N/A,,Unknown,350,2013-07-09 22:56:00
6:56 PM,75.0,66.0,73,29.91,-9999.0,North,12.7,-,N/A,,Unknown,360,2013-07-09 23:56:00
7:56 PM,72.0,63.0,73,29.93,-9999.0,North,10.4,-,N/A,,Unknown,360,2013-07-10 00:56:00
8:56 PM,69.1,62.1,78,29.94,-9999.0,North,10.4,-,N/A,,Unknown,360,2013-07-10 01:56:00
9:56 PM,66.0,62.1,87,29.97,-9999.0,North,5.8,-,N/A,,Unknown,360,2013-07-10 02:56:00
10:56 PM,64.0,62.1,93,29.99,-9999.0,NNW,5.8,-,N/A,,Unknown,340,2013-07-10 03:56:00
11:56 PM,63.0,61.0,93,30.00,-9999.0,NNW,5.8,-,N/A,,Unknown,340,2013-07-10 04:56:00